createdAt,value
2023-04-25T00:02:10.004Z,7.87
2023-04-25T00:04:39.542Z,7.78
2023-04-25T00:07:08.154Z,7.69
2023-04-25T00:09:37.778Z,7.64
2023-04-25T00:12:06.293Z,7.60
2023-04-25T00:14:36.846Z,7.57
2023-04-25T00:17:05.559Z,7.52
2023-04-25T00:19:33.865Z,7.49
2023-04-25T00:22:01.956Z,7.51
2023-04-25T00:24:30.140Z,7.50
2023-04-25T00:26:59.926Z,7.51
2023-04-25T00:29:28.228Z,7.47
2023-04-25T00:31:56.480Z,7.43
2023-04-25T00:34:24.750Z,7.45
2023-04-25T00:36:53.070Z,7.43
2023-04-25T00:39:21.785Z,7.39
2023-04-25T00:41:54.278Z,7.38
2023-04-25T00:44:24.456Z,7.35
2023-04-25T00:46:53.673Z,7.34
2023-04-25T00:49:22.034Z,7.32
2023-04-25T00:51:50.807Z,7.27
2023-04-25T00:54:19.182Z,7.27
2023-04-25T00:56:47.556Z,7.26
2023-04-25T00:59:18.059Z,7.25
2023-04-25T01:01:47.811Z,7.23
2023-04-25T01:04:16.360Z,7.20
2023-04-25T01:06:44.872Z,7.17
2023-04-25T01:09:13.839Z,7.16
2023-04-25T01:11:42.326Z,7.15
2023-04-25T01:14:10.702Z,7.13
2023-04-25T01:16:39.304Z,7.12
2023-04-25T01:19:13.428Z,7.13
2023-04-25T01:21:43.225Z,7.08
2023-04-25T01:24:11.494Z,7.08
2023-04-25T01:26:41.278Z,7.08
2023-04-25T01:29:10.362Z,7.08
2023-04-25T01:31:39.135Z,7.07
2023-04-25T01:34:07.280Z,7.06
2023-04-25T01:36:36.907Z,7.05
2023-04-25T01:39:07.602Z,7.09
2023-04-25T01:41:36.735Z,7.11
2023-04-25T01:44:05.424Z,7.13
2023-04-25T01:46:33.980Z,7.17
2023-04-25T01:49:02.500Z,7.19
2023-04-25T01:51:31.080Z,7.20
2023-04-25T01:54:00.860Z,7.22
2023-04-25T01:56:34.573Z,7.23
2023-04-25T01:59:02.980Z,7.23
2023-04-25T02:01:31.256Z,7.26
2023-04-25T02:04:00.356Z,7.25
2023-04-25T02:06:28.819Z,7.26
2023-04-25T02:08:57.081Z,7.27
2023-04-25T02:11:25.410Z,7.27
2023-04-25T02:13:55.083Z,7.26
2023-04-25T02:16:23.357Z,7.26
2023-04-25T02:18:53.902Z,7.25
2023-04-25T02:21:22.106Z,7.23
2023-04-25T02:23:53.359Z,7.21
2023-04-25T02:26:22.145Z,7.17
2023-04-25T02:28:50.663Z,7.15
2023-04-25T02:31:20.364Z,7.14
2023-04-25T02:33:48.985Z,7.10
2023-04-25T02:36:17.250Z,7.04
2023-04-25T02:38:45.408Z,6.99
2023-04-25T02:41:13.691Z,7.02
2023-04-25T02:43:42.004Z,7.01
2023-04-25T02:46:10.238Z,6.99
2023-04-25T02:48:40.200Z,7.03
2023-04-25T02:51:08.949Z,7.01
2023-04-25T02:53:37.079Z,6.99
2023-04-25T02:56:05.734Z,6.94
2023-04-25T02:58:33.956Z,6.95
2023-04-25T03:01:02.126Z,6.94
2023-04-25T03:03:30.528Z,6.95
2023-04-25T03:06:00.529Z,6.92
2023-04-25T03:08:33.424Z,6.91
2023-04-25T03:11:01.855Z,6.89
2023-04-25T03:13:31.046Z,6.87
2023-04-25T03:15:59.485Z,6.87
2023-04-25T03:18:27.629Z,6.84
2023-04-25T03:20:56.141Z,6.82
2023-04-25T03:23:26.158Z,6.82
2023-04-25T03:25:54.448Z,6.81
2023-04-25T03:28:22.652Z,6.80
2023-04-25T03:30:50.884Z,6.80
2023-04-25T03:33:19.012Z,6.73
2023-04-25T03:35:47.189Z,6.70
2023-04-25T03:38:15.440Z,6.69
2023-04-25T03:40:45.152Z,6.62
2023-04-25T03:43:13.452Z,6.59
2023-04-25T03:45:42.180Z,6.54
2023-04-25T03:48:10.428Z,6.53
2023-04-25T03:50:38.604Z,6.52
2023-04-25T03:53:07.167Z,6.53
2023-04-25T03:55:35.426Z,6.52
2023-04-25T03:58:05.091Z,6.51
2023-04-25T04:00:33.527Z,6.51
2023-04-25T04:03:01.786Z,6.49
2023-04-25T04:05:30.092Z,6.48
2023-04-25T04:07:58.382Z,6.45
2023-04-25T04:10:27.194Z,6.46
2023-04-25T04:12:55.354Z,6.43
2023-04-25T04:15:25.044Z,6.43
2023-04-25T04:17:53.430Z,6.42
2023-04-25T04:20:21.792Z,6.42
2023-04-25T04:22:50.055Z,6.38
2023-04-25T04:25:19.178Z,6.36
2023-04-25T04:27:47.451Z,6.35
2023-04-25T04:30:16.097Z,6.32
2023-04-25T04:32:45.989Z,6.32
2023-04-25T04:35:14.693Z,6.30
2023-04-25T04:37:43.224Z,6.27
2023-04-25T04:40:12.202Z,6.24
2023-04-25T04:42:40.548Z,6.25
2023-04-25T04:45:09.685Z,6.21
2023-04-25T04:47:38.050Z,6.19
2023-04-25T04:50:09.722Z,6.17
2023-04-25T04:52:38.634Z,6.14
2023-04-25T04:55:09.186Z,6.13
2023-04-25T04:57:38.066Z,6.10
2023-04-25T05:00:09.153Z,6.09
2023-04-25T05:02:37.542Z,6.07
2023-04-25T05:05:08.682Z,6.08
2023-04-25T05:07:36.844Z,6.08
2023-04-25T05:10:05.993Z,6.08
2023-04-25T05:12:35.289Z,6.08
2023-04-25T05:15:05.217Z,6.10
2023-04-25T05:17:33.934Z,6.10
2023-04-25T05:20:02.866Z,6.13
2023-04-25T05:22:32.620Z,6.12
2023-04-25T05:25:00.917Z,6.13
2023-04-25T05:27:29.291Z,6.13
2023-04-25T05:29:57.537Z,6.15
2023-04-25T05:32:26.295Z,6.17
2023-04-25T05:34:54.831Z,6.19
2023-04-25T05:37:25.586Z,6.21
2023-04-25T05:39:55.549Z,6.24
2023-04-25T05:42:23.839Z,6.22
2023-04-25T05:44:52.010Z,6.26
2023-04-25T05:47:20.299Z,6.28
2023-04-25T05:49:48.813Z,6.28
2023-04-25T05:52:17.224Z,6.31
2023-04-25T05:54:45.402Z,6.30
2023-04-25T05:57:23.351Z,6.34
2023-04-25T05:59:51.872Z,6.37
2023-04-25T06:02:20.363Z,6.42
2023-04-25T06:04:48.823Z,6.42
2023-04-25T06:07:17.192Z,6.44
2023-04-25T06:09:45.634Z,6.46
2023-04-25T06:12:13.972Z,6.50
2023-04-25T06:14:43.573Z,6.48
2023-04-25T06:17:11.779Z,6.46
2023-04-25T06:19:39.900Z,6.43
2023-04-25T06:22:08.520Z,6.45
2023-04-25T06:24:36.977Z,6.49
2023-04-25T06:27:05.286Z,6.53
2023-04-25T06:29:33.459Z,6.58
2023-04-25T06:32:03.072Z,6.62
2023-04-25T06:34:31.232Z,6.71
2023-04-25T06:36:59.518Z,6.76
2023-04-25T06:39:27.877Z,6.80
2023-04-25T06:41:56.143Z,6.85
2023-04-25T06:44:27.232Z,6.90
2023-04-25T06:46:55.833Z,6.96
2023-04-25T06:49:25.441Z,6.98
2023-04-25T06:51:53.824Z,7.05
2023-04-25T06:54:22.166Z,7.14
2023-04-25T06:56:50.912Z,7.21
2023-04-25T06:59:19.166Z,7.28
2023-04-25T07:01:47.625Z,7.38
2023-04-25T07:04:16.521Z,7.49
2023-04-25T07:06:48.641Z,7.61
2023-04-25T07:09:16.870Z,7.77
2023-04-25T07:11:44.972Z,7.87
2023-04-25T07:14:13.300Z,7.94
2023-04-25T07:16:41.615Z,8.06
2023-04-25T07:19:09.973Z,8.14
2023-04-25T07:21:38.654Z,8.22
2023-04-25T07:24:09.367Z,8.29
2023-04-25T07:26:37.656Z,8.37
2023-04-25T07:29:06.095Z,8.41
2023-04-25T07:31:34.322Z,8.51
2023-04-25T07:34:02.560Z,8.65
2023-04-25T07:36:32.072Z,8.76
2023-04-25T07:39:00.325Z,8.85
2023-04-25T07:41:29.913Z,8.89
2023-04-25T07:43:58.176Z,8.89
2023-04-25T07:46:26.623Z,8.91
2023-04-25T07:48:54.900Z,9.01
2023-04-25T07:51:23.354Z,9.13
2023-04-25T07:53:51.752Z,9.22
2023-04-25T07:56:19.944Z,9.29
2023-04-25T07:58:49.986Z,9.35
2023-04-25T08:01:18.421Z,9.47
2023-04-25T08:03:46.787Z,9.60
2023-04-25T08:06:15.271Z,9.72
2023-04-25T08:08:43.583Z,9.83
2023-04-25T08:11:11.931Z,9.90
2023-04-25T08:13:40.112Z,9.95
2023-04-25T08:16:09.777Z,9.99
2023-04-25T08:18:38.131Z,10.00
2023-04-25T08:21:06.417Z,9.97
2023-04-25T08:27:35.247Z,9.89
2023-04-25T08:30:04.289Z,9.87
2023-04-25T08:32:34.914Z,9.86
2023-04-25T08:35:03.656Z,9.77
2023-04-25T08:37:32.003Z,9.66
2023-04-25T08:40:00.250Z,9.62
2023-04-25T08:42:31.279Z,9.58
2023-04-25T08:45:02.524Z,9.64
2023-04-25T08:47:35.766Z,9.70
2023-04-25T08:50:06.550Z,9.80
2023-04-25T08:52:39.620Z,9.85
2023-04-25T08:55:11.964Z,9.99
2023-04-25T08:57:41.122Z,10.12
2023-04-25T09:00:10.669Z,10.21
2023-04-25T09:02:41.929Z,10.34
2023-04-25T09:05:12.134Z,10.46
2023-04-25T09:07:40.561Z,10.54
2023-04-25T09:10:09.283Z,10.56
2023-04-25T09:12:38.077Z,10.52
2023-04-25T09:15:08.793Z,10.54
2023-04-25T09:17:41.397Z,10.58
2023-04-25T09:20:16.698Z,10.60
2023-04-25T09:22:48.193Z,10.61
2023-04-25T09:25:16.329Z,10.67
2023-04-25T09:27:52.843Z,10.71
2023-04-25T09:30:30.765Z,10.77
2023-04-25T09:32:59.805Z,10.78
2023-04-25T09:35:29.674Z,10.85
2023-04-25T09:37:58.277Z,10.88
2023-04-25T09:40:26.541Z,10.96
2023-04-25T09:42:54.797Z,10.98
2023-04-25T09:45:23.556Z,11.00
2023-04-25T09:47:52.661Z,11.06
2023-04-25T09:50:21.295Z,11.18
2023-04-25T09:53:05.321Z,11.28
2023-04-25T09:55:34.465Z,11.22
2023-04-25T09:58:07.750Z,11.24
2023-04-25T10:00:36.646Z,11.26
2023-04-25T10:03:06.798Z,11.31
2023-04-25T10:05:36.820Z,11.33
2023-04-25T10:08:08.586Z,11.40
2023-04-25T10:10:39.621Z,11.43
2023-04-25T10:13:09.234Z,11.49
2023-04-25T10:15:40.018Z,11.57
2023-04-25T10:18:09.103Z,11.62
2023-04-25T10:20:37.551Z,11.71
2023-04-25T10:23:16.012Z,11.72
2023-04-25T10:25:44.666Z,11.68
2023-04-25T10:28:12.831Z,11.57
2023-04-25T10:30:59.894Z,11.62
2023-04-25T10:33:40.713Z,11.71
2023-04-25T10:36:16.823Z,11.82
2023-04-25T10:38:48.272Z,11.91
2023-04-25T10:41:16.587Z,11.99
2023-04-25T10:43:46.090Z,12.12
2023-04-25T10:46:21.806Z,12.15
2023-04-25T10:48:51.862Z,12.23
2023-04-25T10:51:22.548Z,12.38
2023-04-25T10:54:01.734Z,12.43
2023-04-25T10:56:32.403Z,12.65
2023-04-25T10:59:11.092Z,12.83
2023-04-25T11:01:42.098Z,12.98
2023-04-25T11:04:22.807Z,13.03
2023-04-25T11:07:07.353Z,13.07
2023-04-25T11:09:38.676Z,13.12
2023-04-25T11:12:09.665Z,13.24
2023-04-25T11:14:38.309Z,13.40
2023-04-25T11:17:06.896Z,13.44
2023-04-25T11:19:35.154Z,13.54
2023-04-25T11:22:07.927Z,13.71
2023-04-25T11:24:38.610Z,13.84
2023-04-25T11:27:08.011Z,13.93
2023-04-25T11:29:37.211Z,13.90
2023-04-25T11:32:05.827Z,13.88
2023-04-25T11:34:35.652Z,13.86
2023-04-25T11:37:04.691Z,13.87
2023-04-25T11:39:33.093Z,13.92
2023-04-25T11:42:03.850Z,13.99
2023-04-25T11:44:36.492Z,14.10
2023-04-25T11:47:04.951Z,14.13
2023-04-25T11:49:33.628Z,14.17
2023-04-25T11:52:01.878Z,14.10
2023-04-25T11:54:29.941Z,13.94
2023-04-25T11:56:58.729Z,13.89
2023-04-25T11:59:29.068Z,13.85
2023-04-25T12:01:58.864Z,13.74
2023-04-25T12:04:27.863Z,13.71
2023-04-25T12:06:57.708Z,13.72
2023-04-25T12:09:31.621Z,13.76
2023-04-25T12:12:04.108Z,13.86
2023-04-25T12:14:36.024Z,13.95
2023-04-25T12:17:09.176Z,14.00
2023-04-25T12:19:41.272Z,14.13
2023-04-25T12:22:22.689Z,14.16
2023-04-25T12:24:50.921Z,14.05
2023-04-25T12:27:21.072Z,14.16
2023-04-25T12:29:58.437Z,14.27
2023-04-25T12:32:27.424Z,14.13
2023-04-25T12:34:55.756Z,14.31
2023-04-25T12:37:24.185Z,14.36
2023-04-25T12:39:53.051Z,14.12
2023-04-25T12:42:22.188Z,13.96
2023-04-25T12:44:50.485Z,13.60
2023-04-25T12:47:19.986Z,13.24
2023-04-25T12:49:48.316Z,13.05
2023-04-25T12:52:16.624Z,12.88
2023-04-25T12:54:44.909Z,12.73
2023-04-25T12:57:13.568Z,12.41
2023-04-25T12:59:41.732Z,12.26
2023-04-25T13:02:10.239Z,12.23
2023-04-25T13:04:39.918Z,12.20
2023-04-25T13:07:08.307Z,12.22
2023-04-25T13:09:36.472Z,12.20
2023-04-25T13:12:05.445Z,12.06
2023-04-25T13:14:33.713Z,12.09
2023-04-25T13:17:01.978Z,12.05
2023-04-25T13:19:30.265Z,12.13
2023-04-25T13:22:00.040Z,12.33
2023-04-25T13:24:28.702Z,12.43
2023-04-25T13:26:56.991Z,12.30
2023-04-25T13:29:25.337Z,12.23
2023-04-25T13:31:53.433Z,12.08
2023-04-25T13:34:21.836Z,12.10
2023-04-25T13:36:50.202Z,12.12
2023-04-25T13:39:19.969Z,12.08
2023-04-25T13:41:48.338Z,12.08
2023-04-25T13:44:16.695Z,11.96
2023-04-25T13:46:47.845Z,11.98
2023-04-25T13:49:17.050Z,12.07
2023-04-25T13:51:45.292Z,12.18
2023-04-25T13:54:13.717Z,12.42
2023-04-25T13:56:43.751Z,12.64
2023-04-25T13:59:12.362Z,12.73
2023-04-25T14:01:40.698Z,12.88
2023-04-25T14:04:09.163Z,12.88
2023-04-25T14:06:37.840Z,12.84
2023-04-25T14:09:08.204Z,12.76
2023-04-25T14:11:36.400Z,12.57
2023-04-25T14:14:05.993Z,12.50
2023-04-25T14:16:34.273Z,12.47
2023-04-25T14:19:02.889Z,12.41
2023-04-25T14:21:33.641Z,12.28
2023-04-25T14:24:01.884Z,12.19
2023-04-25T14:26:30.128Z,12.13
2023-04-25T14:28:58.240Z,12.09
2023-04-25T14:31:28.214Z,12.16
2023-04-25T14:33:59.106Z,12.19
2023-04-25T14:36:28.486Z,12.20
2023-04-25T14:38:56.732Z,12.28
2023-04-25T14:41:26.055Z,12.37
2023-04-25T14:43:54.942Z,12.32
2023-04-25T14:46:24.430Z,12.42
2023-04-25T14:48:54.460Z,12.66
2023-04-25T14:51:22.715Z,12.76
2023-04-25T14:53:51.887Z,12.89
2023-04-25T14:56:22.065Z,13.05
2023-04-25T14:58:50.225Z,12.96
2023-04-25T15:01:18.485Z,12.81
2023-04-25T15:03:47.025Z,12.73
2023-04-25T15:06:16.848Z,12.58
2023-04-25T15:08:45.026Z,12.45
2023-04-25T15:11:13.220Z,12.39
2023-04-25T15:13:41.572Z,12.23
2023-04-25T15:16:10.065Z,12.21
2023-04-25T15:18:38.768Z,12.11
2023-04-25T15:21:07.516Z,12.03
2023-04-25T15:23:37.224Z,12.06
2023-04-25T15:26:08.239Z,12.07
2023-04-25T15:28:36.451Z,12.01
2023-04-25T15:31:04.828Z,12.07
2023-04-25T15:33:33.491Z,11.97
2023-04-25T15:36:04.467Z,12.05
2023-04-25T15:38:32.788Z,11.95
2023-04-25T15:41:02.850Z,11.94
2023-04-25T15:43:31.956Z,11.88
2023-04-25T15:46:00.125Z,11.67
2023-04-25T15:48:28.429Z,11.63
2023-04-25T15:50:57.024Z,11.71
2023-04-25T15:53:25.289Z,11.60
2023-04-25T15:55:57.431Z,11.62
2023-04-25T15:58:27.816Z,11.60
2023-04-25T16:00:57.356Z,11.58
2023-04-25T16:03:26.113Z,11.51
2023-04-25T16:05:54.807Z,11.50
2023-04-25T16:08:23.139Z,11.49
2023-04-25T16:10:51.431Z,11.48
2023-04-25T16:13:19.556Z,11.55
2023-04-25T16:15:49.246Z,11.51
2023-04-25T16:18:17.640Z,11.50
2023-04-25T16:20:46.270Z,11.60
2023-04-25T16:23:14.517Z,11.66
2023-04-25T16:25:43.142Z,11.73
2023-04-25T16:28:11.586Z,11.69
2023-04-25T16:30:39.779Z,11.75
2023-04-25T16:33:10.111Z,11.71
2023-04-25T16:35:38.398Z,11.68
2023-04-25T16:38:06.722Z,11.62
2023-04-25T16:40:35.141Z,11.58
2023-04-25T16:43:03.683Z,11.58
2023-04-25T16:45:32.007Z,11.56
2023-04-25T16:48:00.294Z,11.46
2023-04-25T16:50:29.958Z,11.45
2023-04-25T16:52:58.176Z,11.45
2023-04-25T16:55:26.524Z,11.41
2023-04-25T16:57:55.242Z,11.39
2023-04-25T17:00:23.644Z,11.34
2023-04-25T17:02:52.374Z,11.28
2023-04-25T17:05:20.654Z,11.36
2023-04-25T17:07:50.419Z,11.41
2023-04-25T17:10:18.668Z,11.39
2023-04-25T17:12:48.218Z,11.36
2023-04-25T17:15:16.580Z,11.33
2023-04-25T17:17:44.823Z,11.31
2023-04-25T17:20:15.021Z,11.31
2023-04-25T17:22:43.423Z,11.36
2023-04-25T17:25:13.637Z,11.25
2023-04-25T17:27:42.005Z,11.24
2023-04-25T17:30:10.961Z,11.26
2023-04-25T17:32:39.481Z,11.24
2023-04-25T17:35:08.273Z,11.21
2023-04-25T17:37:36.521Z,11.17
2023-04-25T17:40:06.804Z,11.04
2023-04-25T17:42:36.863Z,11.00
2023-04-25T17:45:05.656Z,10.96
2023-04-25T17:47:33.939Z,10.97
2023-04-25T17:50:02.485Z,10.90
2023-04-25T17:52:30.808Z,10.90
2023-04-25T17:54:58.871Z,10.83
2023-04-25T17:57:27.494Z,10.87
2023-04-25T17:59:57.902Z,10.90
2023-04-25T18:02:27.178Z,10.85
2023-04-25T18:04:56.748Z,10.81
2023-04-25T18:07:24.950Z,10.74
2023-04-25T18:09:53.141Z,10.70
2023-04-25T18:12:21.684Z,10.69
2023-04-25T18:14:49.801Z,10.64
2023-04-25T18:17:20.199Z,10.67
2023-04-25T18:19:49.058Z,10.64
2023-04-25T18:22:17.336Z,10.63
2023-04-25T18:24:46.407Z,10.52
2023-04-25T18:27:14.791Z,10.53
2023-04-25T18:29:45.505Z,10.53
2023-04-25T18:32:14.370Z,10.53
2023-04-25T18:34:46.207Z,10.49
2023-04-25T18:37:14.524Z,10.48
2023-04-25T18:39:42.912Z,10.43
2023-04-25T18:42:11.086Z,10.38
2023-04-25T18:44:40.929Z,10.38
2023-04-25T18:47:10.233Z,10.36
2023-04-25T18:49:38.802Z,10.36
2023-04-25T18:52:10.820Z,10.36
2023-04-25T18:54:39.360Z,10.35
2023-04-25T18:57:07.703Z,10.39
2023-04-25T18:59:36.491Z,10.38
2023-04-25T19:02:05.599Z,10.38
2023-04-25T19:04:34.286Z,10.38
2023-04-25T19:07:02.729Z,10.33
2023-04-25T19:09:32.563Z,10.34
2023-04-25T19:12:01.870Z,10.32
2023-04-25T19:14:30.119Z,10.27
2023-04-25T19:16:59.567Z,10.26
2023-04-25T19:19:28.465Z,10.28
2023-04-25T19:21:56.760Z,10.28
2023-04-25T19:24:25.094Z,10.23
2023-04-25T19:26:54.733Z,10.21
2023-04-25T19:29:23.247Z,10.23
2023-04-25T19:31:51.747Z,10.23
2023-04-25T19:34:19.883Z,10.19
2023-04-25T19:36:48.941Z,10.18
2023-04-25T19:39:17.130Z,10.17
2023-04-25T19:41:45.364Z,10.17
2023-04-25T19:44:15.233Z,10.17
2023-04-25T19:46:45.943Z,10.15
2023-04-25T19:49:14.420Z,10.10
2023-04-25T19:51:43.245Z,10.10
2023-04-25T19:54:11.532Z,10.09
2023-04-25T19:56:39.843Z,10.04
2023-04-25T19:59:08.108Z,10.08
2023-04-25T20:01:37.691Z,10.08
2023-04-25T20:04:06.101Z,10.09
2023-04-25T20:06:34.506Z,10.07
2023-04-25T20:09:03.976Z,10.05
2023-04-25T20:11:32.172Z,10.04
2023-04-25T20:14:00.270Z,10.06
2023-04-25T20:16:28.889Z,10.04
2023-04-25T20:18:58.561Z,10.04
2023-04-25T20:21:27.564Z,10.05
2023-04-25T20:23:55.769Z,10.02
2023-04-25T20:26:24.092Z,10.01
2023-04-25T20:28:53.070Z,9.96
2023-04-25T20:31:22.444Z,9.97
2023-04-25T20:33:50.786Z,9.93
2023-04-25T20:36:20.607Z,9.95
2023-04-25T20:38:48.815Z,9.95
2023-04-25T20:41:17.157Z,9.92
2023-04-25T20:43:46.093Z,9.93
2023-04-25T20:46:14.396Z,9.94
2023-04-25T20:48:42.704Z,9.84
2023-04-25T20:51:12.122Z,9.82
2023-04-25T20:53:41.799Z,9.81
2023-04-25T20:56:11.002Z,9.80
2023-04-25T20:58:39.508Z,9.84
2023-04-25T21:01:08.264Z,9.78
2023-04-25T21:03:36.840Z,9.83
2023-04-25T21:06:05.364Z,9.77
2023-04-25T21:08:33.599Z,9.78
2023-04-25T21:11:03.281Z,9.78
2023-04-25T21:13:31.994Z,9.77
2023-04-25T21:16:00.906Z,9.72
2023-04-25T21:18:31.964Z,9.69
2023-04-25T21:21:01.333Z,9.72
2023-04-25T21:23:29.838Z,9.72
2023-04-25T21:25:57.999Z,9.64
2023-04-25T21:28:27.724Z,9.68
2023-04-25T21:30:56.037Z,9.68
2023-04-25T21:33:24.722Z,9.70
2023-04-25T21:35:53.698Z,9.71
2023-04-25T21:38:21.796Z,9.73
2023-04-25T21:40:50.079Z,9.72
2023-04-25T21:43:18.514Z,9.73
2023-04-25T21:46:14.661Z,9.77
2023-04-25T21:48:36.267Z,9.70
2023-04-25T21:51:04.504Z,9.69
2023-04-25T21:53:33.057Z,9.69
2023-04-25T21:56:01.377Z,9.70
2023-04-25T21:58:29.557Z,9.69
2023-04-25T22:01:00.677Z,9.75
2023-04-25T22:03:29.210Z,9.74
2023-04-25T22:05:57.776Z,9.69
2023-04-25T22:08:25.900Z,9.71
2023-04-25T22:10:55.766Z,9.68
2023-04-25T22:13:24.053Z,9.73
2023-04-25T22:15:52.724Z,9.75
2023-04-25T22:18:22.316Z,9.73
2023-04-25T22:20:50.876Z,9.70
2023-04-25T22:23:19.127Z,9.72
2023-04-25T22:25:48.833Z,9.75
2023-04-25T22:28:17.011Z,9.75
2023-04-25T22:30:45.196Z,9.77
2023-04-25T22:33:13.375Z,9.76
2023-04-25T22:35:43.000Z,9.76
2023-04-25T22:38:11.486Z,9.74
2023-04-25T22:40:39.821Z,9.77
2023-04-25T22:43:07.942Z,9.79
2023-04-25T22:45:36.375Z,9.79
2023-04-25T22:48:04.696Z,9.80
2023-04-25T22:50:33.144Z,9.82
2023-04-25T22:53:04.138Z,9.83
2023-04-25T22:55:32.476Z,9.83
2023-04-25T22:58:01.325Z,9.78
2023-04-25T23:00:30.448Z,9.80
2023-04-25T23:02:58.769Z,9.76
2023-04-25T23:05:27.565Z,9.74
2023-04-25T23:07:56.182Z,9.74
2023-04-25T23:10:26.003Z,9.72
2023-04-25T23:12:54.901Z,9.76
2023-04-25T23:15:23.193Z,9.77
2023-04-25T23:17:51.631Z,9.78
2023-04-25T23:20:21.182Z,9.76
2023-04-25T23:22:49.879Z,9.77
2023-04-25T23:25:19.235Z,9.75
2023-04-25T23:27:49.297Z,9.76
2023-04-25T23:30:17.903Z,9.76
2023-04-25T23:32:46.352Z,9.75
2023-04-25T23:35:19.637Z,9.72
2023-04-25T23:37:49.282Z,9.75
2023-04-25T23:40:17.482Z,9.76
2023-04-25T23:42:45.769Z,9.75
2023-04-25T23:45:16.743Z,9.75
2023-04-25T23:47:45.066Z,9.78
2023-04-25T23:50:13.392Z,9.77
2023-04-25T23:52:41.688Z,9.75
2023-04-25T23:55:10.830Z,9.73
2023-04-25T23:57:39.098Z,9.72
